Terminal Aerodrome Forecast
Issued by NWS

Home | Current Version | Previous Version | Text Only | Print | Product List | Glossary On
Versions: 1 2 3 4 5 6 7 8 9 10 11 12 13 14 15 16 17 18 19 20 21 22
000
FTUS41 KCAR 261349 AAE
TAFFVE
TAF AMD
KFVE 261349Z 2614/2712 16007KT 1/4SM -RA FG OVC003
     FM261500 14006KT 3SM -RA BR OVC005
     FM262100 VRB03KT 1SM BR VCSH OVC003=

USA.gov is the U.S. government's official web portal to all federal, state and local government web resources and services.